Time;durP1;ratioP1;P1;durP2;ratioP2;P2;SDS_P1;SDS_P2;PMS_P1;PMS_P2;Temp;Humidity;BMP_temperature;BMP_pressure;BME280_temperature;BME280_humidity;BME280_pressure;Samples;Min_cycle;Max_cycle;Signal;HPM_P1;HPM_P2
2021/12/21 00:01:52;;;;;;;24.13;10.32;;;;;;;-3.58;100.00;101651.41;5069790;28;20031;-57
2021/12/21 00:04:18;;;;;;;25.45;10.75;;;;;;;-3.60;100.00;101663.34;5069447;28;20119;-57
2021/12/21 00:06:44;;;;;;;16.27;10.02;;;;;;;-3.55;100.00;101659.22;5069596;28;20901;-57
2021/12/21 00:09:09;;;;;;;21.95;10.95;;;;;;;-3.53;100.00;101661.81;5070082;28;20034;-57
2021/12/21 00:11:35;;;;;;;21.70;10.32;;;;;;;-3.52;100.00;101651.59;5068141;28;20046;-57
2021/12/21 00:14:21;;;;;;;17.52;9.77;;;;;;;-3.53;100.00;101649.84;5068040;28;20039;-57
2021/12/21 00:17:04;;;;;;;20.75;9.40;;;;;;;-3.51;100.00;101655.00;5068349;28;20032;-57
2021/12/21 00:22:45;;;;;;;25.07;11.57;;;;;;;-3.67;100.00;101654.59;5068255;28;20043;-58
2021/12/21 00:25:01;;;;;;;17.85;10.27;;;;;;;-3.46;100.00;101636.34;5067708;28;20815;-57
2021/12/21 00:27:27;;;;;;;18.77;10.98;;;;;;;-3.42;100.00;101643.28;5067455;28;20024;-57
2021/12/21 00:29:52;;;;;;;23.45;10.85;;;;;;;-3.52;100.00;101641.31;5068990;28;20023;-57
2021/12/21 00:32:17;;;;;;;20.45;10.52;;;;;;;-3.56;100.00;101643.75;5068851;28;20034;-57
2021/12/21 00:34:43;;;;;;;23.50;11.80;;;;;;;-3.58;100.00;101650.56;5069133;28;20968;-58
2021/12/21 00:37:08;;;;;;;22.02;10.55;;;;;;;-3.61;100.00;101646.19;5049743;28;20876;-57
2021/12/21 00:39:34;;;;;;;25.33;10.55;;;;;;;-3.63;100.00;101637.56;5069226;28;20023;-57
2021/12/21 00:42:01;;;;;;;17.52;10.38;;;;;;;-3.67;100.00;101649.47;5067219;28;20027;-57
2021/12/21 00:44:27;;;;;;;23.13;10.15;;;;;;;-3.69;100.00;101638.28;5067506;28;20333;-58
2021/12/21 00:46:52;;;;;;;24.00;10.13;;;;;;;-3.94;100.00;101591.34;5069244;28;20028;-57
2021/12/21 00:49:18;;;;;;;17.60;8.70;;;;;;;-3.70;100.00;101633.09;5067950;28;20046;-58
2021/12/21 00:51:46;;;;;;;21.10;11.65;;;;;;;-3.70;100.00;101631.41;5069144;28;20035;-58
2021/12/21 00:54:12;;;;;;;21.88;10.32;;;;;;;-3.72;100.00;101630.47;5068816;28;20028;-57
2021/12/21 00:56:37;;;;;;;20.10;9.80;;;;;;;-3.90;100.00;101603.44;5068651;28;20039;-57
2021/12/21 00:59:04;;;;;;;16.90;9.70;;;;;;;-3.81;100.00;101645.63;5068442;28;20083;-57
2021/12/21 01:01:30;;;;;;;17.48;11.27;;;;;;;-3.82;100.00;101635.34;5065394;28;20049;-57
2021/12/21 01:03:57;;;;;;;17.25;10.68;;;;;;;-3.83;100.00;101637.03;5059944;28;20063;-57
2021/12/21 01:11:25;;;;;;;17.05;10.02;;;;;;;-3.90;100.00;101629.13;5046979;28;20809;-57
2021/12/21 01:16:41;;;;;;;16.08;9.93;;;;;;;-3.96;100.00;101621.25;5046730;28;20923;-57
2021/12/21 01:19:19;;;;;;;28.15;12.35;;;;;;;-3.90;100.00;101637.69;5047251;28;20036;-57
2021/12/21 01:22:04;;;;;;;17.48;10.60;;;;;;;-3.90;100.00;101616.28;5047692;28;20028;-57
2021/12/21 01:29:53;;;;;;;17.25;10.73;;;;;;;-3.91;100.00;101619.66;5046869;28;20036;-57
2021/12/21 01:32:54;;;;;;;19.10;10.95;;;;;;;-3.90;100.00;101616.28;5047567;28;20036;-57
2021/12/21 01:38:21;;;;;;;15.40;10.00;;;;;;;-3.86;100.00;101610.41;5015879;28;20052;-57
2021/12/21 01:41:03;;;;;;;17.67;10.32;;;;;;;-3.90;100.00;101608.59;5046770;28;20035;-58
2021/12/21 01:51:27;;;;;;;21.77;10.77;;;;;;;-3.94;100.00;101614.44;5047572;28;20039;-57
2021/12/21 01:53:52;;;;;;;19.88;12.05;;;;;;;-3.94;100.00;101617.03;5046265;28;20028;-57
2021/12/21 01:56:20;;;;;;;17.80;10.57;;;;;;;-3.96;100.00;101621.25;5047393;28;20056;-57
2021/12/21 01:58:45;;;;;;;19.52;10.32;;;;;;;-3.98;100.00;101610.06;5047773;28;20123;-58
2021/12/21 02:01:15;;;;;;;17.45;10.15;;;;;;;-4.21;100.00;101574.38;5047194;28;20188;-57
2021/12/21 02:03:49;;;;;;;26.95;11.18;;;;;;;-3.95;100.00;101605.00;5047619;28;20959;-58
2021/12/21 02:06:27;;;;;;;17.80;10.68;;;;;;;-3.89;100.00;101607.78;5046758;28;20032;-58
2021/12/21 02:08:53;;;;;;;17.70;9.23;;;;;;;-3.86;100.00;101608.72;5047234;28;20036;-58
2021/12/21 02:11:19;;;;;;;19.40;9.93;;;;;;;-3.92;100.00;101615.38;5047782;28;20032;-58
2021/12/21 02:13:48;;;;;;;18.25;9.65;;;;;;;-3.98;100.00;101612.63;5048047;28;20071;-58
2021/12/21 02:16:22;;;;;;;16.63;10.57;;;;;;;-4.03;100.00;101609.94;5045909;28;20028;-58
2021/12/21 02:18:54;;;;;;;17.98;11.68;;;;;;;-4.02;100.00;101610.81;5045902;28;20040;-58
2021/12/21 02:21:31;;;;;;;21.58;10.95;;;;;;;-4.04;100.00;101604.75;5045161;28;20060;-58
2021/12/21 02:24:02;;;;;;;21.65;10.50;;;;;;;-4.03;100.00;101604.81;5046643;28;20036;-58
2021/12/21 02:29:11;;;;;;;23.60;10.90;;;;;;;-4.35;100.00;101565.41;5046357;28;20982;-58
2021/12/21 02:31:38;;;;;;;22.35;9.93;;;;;;;-4.56;100.00;101528.88;5044977;28;20038;-58
2021/12/21 02:34:03;;;;;;;25.48;12.35;;;;;;;-4.09;100.00;101604.66;5046836;28;20034;-58
2021/12/21 02:36:29;;;;;;;23.33;11.00;;;;;;;-4.08;100.00;101605.50;5045417;28;20854;-58
2021/12/21 02:38:55;;;;;;;21.48;10.55;;;;;;;-4.10;100.00;101597.78;5044905;28;20042;-58
2021/12/21 02:41:21;;;;;;;18.27;9.65;;;;;;;-4.11;100.00;101596.03;5030138;28;20858;-58
2021/12/21 02:43:46;;;;;;;17.20;10.95;;;;;;;-4.19;100.00;101588.09;5046583;28;20034;-58
2021/12/21 02:46:12;;;;;;;15.50;9.93;;;;;;;-4.61;100.00;101521.91;5047532;28;20028;-59
2021/12/21 02:48:37;;;;;;;19.13;9.93;;;;;;;-4.26;100.00;101581.06;5047043;28;20038;-57
2021/12/21 02:51:02;;;;;;;19.25;10.25;;;;;;;-4.30;100.00;101589.50;5047208;28;20027;-57
2021/12/21 02:53:28;;;;;;;18.52;11.05;;;;;;;-4.34;100.00;101587.69;5046246;28;20880;-57
2021/12/21 02:55:54;;;;;;;24.38;10.00;;;;;;;-4.36;100.00;101579.06;5048379;28;20059;-57
2021/12/21 02:58:19;;;;;;;15.57;9.63;;;;;;;-4.37;100.00;101577.34;5049252;28;20135;-57
2021/12/21 03:00:46;;;;;;;19.17;9.93;;;;;;;-4.39;100.00;101578.97;5050866;28;20955;-58
2021/12/21 03:03:14;;;;;;;17.23;10.63;;;;;;;-4.37;100.00;101589.28;5049057;28;20028;-57
2021/12/21 03:05:45;;;;;;;27.17;10.55;;;;;;;-4.40;100.00;101578.94;5049022;28;20053;-57
2021/12/21 03:08:17;;;;;;;17.88;10.30;;;;;;;-4.40;100.00;101587.50;5056952;28;20070;-57
2021/12/21 03:10:59;;;;;;;20.85;10.07;;;;;;;-4.43;100.00;101587.41;5049774;28;20040;-57
2021/12/21 03:16:09;;;;;;;16.85;11.05;;;;;;;-4.46;100.00;101584.75;5049100;28;20043;-58
2021/12/21 03:18:34;;;;;;;14.95;8.98;;;;;;;-4.47;100.00;101583.03;5051005;28;20037;-57
2021/12/21 03:21:00;;;;;;;23.70;9.98;;;;;;;-4.47;100.00;101590.72;5050193;28;20216;-58
2021/12/21 03:23:25;;;;;;;19.92;11.20;;;;;;;-4.49;100.00;101586.34;5049129;28;20035;-58
2021/12/21 03:25:50;;;;;;;19.20;11.27;;;;;;;-4.47;100.00;101585.59;5049245;28;20861;-58
2021/12/21 03:28:16;;;;;;;20.65;10.85;;;;;;;-4.77;100.00;101533.41;5050317;28;20086;-58
2021/12/21 03:30:41;;;;;;;15.05;9.30;;;;;;;-4.46;100.00;101581.34;5050405;28;20074;-58
2021/12/21 03:33:06;;;;;;;22.85;11.27;;;;;;;-4.49;100.00;101582.09;5050115;28;20806;-58
2021/12/21 03:35:32;;;;;;;18.35;9.73;;;;;;;-4.52;100.00;101596.50;5050310;28;20020;-58
2021/12/21 03:37:57;;;;;;;18.00;11.07;;;;;;;-4.54;100.00;101583.66;5050180;28;20085;-59
2021/12/21 03:40:23;;;;;;;19.10;9.75;;;;;;;-4.50;100.00;101584.63;5050415;28;20028;-58
2021/12/21 03:42:48;;;;;;;19.58;10.63;;;;;;;-4.47;100.00;101579.59;5050527;28;20042;-58
2021/12/21 03:45:13;;;;;;;17.85;11.15;;;;;;;-4.45;100.00;101572.78;5048934;28;20909;-58
2021/12/21 03:47:39;;;;;;;16.95;10.43;;;;;;;-4.38;100.00;101580.72;5048148;28;20071;-58
2021/12/21 03:50:13;;;;;;;18.35;9.80;;;;;;;-4.37;100.00;101572.22;5049344;28;20060;-58
2021/12/21 03:52:38;;;;;;;19.13;10.13;;;;;;;-4.38;100.00;101579.84;5049781;28;20133;-58
2021/12/21 03:55:04;;;;;;;21.55;11.05;;;;;;;-4.40;100.00;101582.38;5049671;28;20922;-58
2021/12/21 03:57:30;;;;;;;23.08;11.48;;;;;;;-4.42;100.00;101573.75;5049891;28;20028;-58
2021/12/21 03:59:56;;;;;;;27.23;12.10;;;;;;;-4.47;100.00;101570.19;5031727;28;20086;-58
2021/12/21 04:02:24;;;;;;;14.85;9.90;;;;;;;-4.42;100.00;101578.88;5049496;28;20029;-58
2021/12/21 04:04:50;;;;;;;19.10;9.23;;;;;;;-4.44;100.00;101580.53;5048551;28;20024;-58
2021/12/21 04:07:16;;;;;;;18.52;9.00;;;;;;;-4.49;100.00;101582.09;5049865;28;20105;-58
2021/12/21 04:09:41;;;;;;;14.75;9.30;;;;;;;-4.53;100.00;101575.16;5052030;28;20950;-58
2021/12/21 04:12:07;;;;;;;23.55;10.00;;;;;;;-4.53;100.00;101575.16;5050272;28;20024;-58
2021/12/21 04:14:33;;;;;;;30.30;10.40;;;;;;;-4.91;100.00;101521.88;5050264;28;20028;-58
2021/12/21 04:16:59;;;;;;;18.08;9.57;;;;;;;-4.66;100.00;101573.91;5049580;28;20028;-58
2021/12/21 04:19:25;;;;;;;16.55;9.30;;;;;;;-4.71;100.00;101574.59;5049691;28;20980;-58
2021/12/21 04:21:50;;;;;;;17.23;9.70;;;;;;;-4.70;100.00;101566.09;5048004;28;20042;-58
2021/12/21 04:24:16;;;;;;;19.15;9.60;;;;;;;-4.71;100.00;101566.91;5047989;28;20020;-59
2021/12/21 04:26:41;;;;;;;17.58;9.52;;;;;;;-4.70;100.00;101555.84;5057255;28;20134;-58
2021/12/21 04:29:07;;;;;;;15.18;9.32;;;;;;;-4.72;100.00;101555.78;5066916;28;20075;-58
2021/12/21 04:31:32;;;;;;;23.83;11.15;;;;;;;-4.71;100.00;101554.09;5070113;28;20249;-58
2021/12/21 04:33:58;;;;;;;22.00;11.05;;;;;;;-4.69;100.00;101553.31;5069822;28;20900;-59
2021/12/21 04:36:25;;;;;;;24.05;10.23;;;;;;;-4.67;100.00;101550.81;5068882;28;20037;-58
2021/12/21 04:38:51;;;;;;;21.63;11.30;;;;;;;-4.67;100.00;101553.38;5068301;28;20038;-58
2021/12/21 04:41:23;;;;;;;19.20;10.45;;;;;;;-4.79;100.00;101532.47;5069604;28;20911;-58
2021/12/21 04:43:50;;;;;;;24.73;11.65;;;;;;;-4.69;100.00;101557.56;5068612;28;20039;-59
2021/12/21 04:46:15;;;;;;;20.88;10.70;;;;;;;-4.68;100.00;101543.94;5069008;28;20105;-58
2021/12/21 04:48:40;;;;;;;20.20;10.55;;;;;;;-4.67;100.00;101550.81;5069570;28;20138;-58
2021/12/21 04:51:06;;;;;;;21.45;10.27;;;;;;;-4.72;100.00;101542.09;5069188;28;20984;-58
2021/12/21 04:53:31;;;;;;;15.80;10.45;;;;;;;-4.73;100.00;101550.63;5069386;28;20051;-58
2021/12/21 04:55:57;;;;;;;16.92;10.10;;;;;;;-5.03;100.00;101508.66;5069900;28;20030;-58
2021/12/21 04:58:23;;;;;;;17.02;10.63;;;;;;;-4.82;100.00;101556.31;5069031;28;20911;-58
2021/12/21 05:00:49;;;;;;;18.70;9.90;;;;;;;-4.85;100.00;101550.25;5069336;28;20066;-58
2021/12/21 05:03:14;;;;;;;19.08;10.43;;;;;;;-4.90;100.00;101551.81;5069203;28;20024;-58
2021/12/21 05:05:40;;;;;;;23.20;11.38;;;;;;;-5.07;100.00;101532.47;5069674;28;20053;-58
2021/12/21 05:08:24;;;;;;;19.38;10.63;;;;;;;-4.95;100.00;101550.78;5068776;28;20032;-58
2021/12/21 05:10:56;;;;;;;;;;;;;;;-4.95;100.00;101554.22;5069067;28;20081;-58
2021/12/21 05:13:25;;;;;;;22.75;10.98;;;;;;;-4.96;100.00;101554.16;5068174;28;19915;-59
2021/12/21 05:15:50;;;;;;;25.33;12.73;;;;;;;-4.96;100.00;101551.59;5068223;28;20329;-58
2021/12/21 05:18:16;;;;;;;23.08;11.35;;;;;;;-4.95;100.00;101548.22;5070368;28;20834;-58
2021/12/21 05:20:42;;;;;;;17.63;10.50;;;;;;;-4.94;100.00;101555.09;5068536;28;20879;-58
2021/12/21 05:23:08;;;;;;;15.98;9.73;;;;;;;-4.99;100.00;101556.63;5068589;28;20035;-58
2021/12/21 05:25:34;;;;;;;21.38;11.20;;;;;;;-4.94;100.00;101557.66;5068375;28;20023;-59
2021/12/21 05:27:59;;;;;;;19.05;11.18;;;;;;;-4.91;100.00;101560.31;5066960;28;20089;-58
2021/12/21 05:30:26;;;;;;;23.55;11.60;;;;;;;-4.89;100.00;101558.66;5068870;28;20027;-58
2021/12/21 05:32:52;;;;;;;19.13;9.98;;;;;;;-4.90;100.00;101552.66;5066914;28;20023;-58
2021/12/21 05:35:18;;;;;;;18.80;11.63;;;;;;;-4.93;100.00;101554.25;5066959;28;20774;-58
2021/12/21 05:37:46;;;;;;;19.95;11.75;;;;;;;-5.01;100.00;101543.78;5068197;28;20408;-58
2021/12/21 05:40:14;;;;;;;20.30;10.63;;;;;;;-5.03;100.00;101547.09;5066600;28;20031;-58
2021/12/21 05:42:41;;;;;;;27.70;11.23;;;;;;;-5.36;100.00;101501.69;5066943;28;20410;-58
2021/12/21 05:45:07;;;;;;;18.92;9.68;;;;;;;-5.14;100.00;101549.34;5068511;28;20028;-58
2021/12/21 05:47:33;;;;;;;23.45;12.02;;;;;;;-5.16;100.00;101546.72;5068388;28;20024;-58
2021/12/21 05:49:59;;;;;;;17.63;10.40;;;;;;;-5.17;100.00;101551.81;5066956;28;20923;-59
2021/12/21 05:52:24;;;;;;;21.02;10.50;;;;;;;-5.18;100.00;101556.06;5067875;28;20031;-58
2021/12/21 05:54:50;;;;;;;14.77;10.27;;;;;;;-5.18;100.00;101553.50;5066869;28;20027;-58
2021/12/21 05:57:15;;;;;;;17.38;10.25;;;;;;;-5.14;100.00;101556.16;5067869;28;20024;-58
2021/12/21 05:59:41;;;;;;;16.17;9.90;;;;;;;-5.16;100.00;101559.53;5066375;28;20024;-58
2021/12/21 06:02:06;;;;;;;18.80;9.82;;;;;;;-5.17;100.00;101562.91;5067669;28;20857;-58
2021/12/21 06:04:32;;;;;;;21.55;9.43;;;;;;;-5.16;100.00;101551.84;5066686;28;20047;-58
2021/12/21 06:06:57;;;;;;;15.98;8.88;;;;;;;-5.08;100.00;101553.78;5068573;28;20131;-58
2021/12/21 06:09:23;;;;;;;20.85;10.57;;;;;;;-5.03;100.00;101549.66;5066128;28;20036;-58
2021/12/21 06:25:50;;;;;;;18.00;9.57;;;;;;;-4.87;100.00;101551.91;5066072;28;20128;-59
2021/12/21 06:27:47;;;;;;;16.30;10.23;;;;;;;-5.04;100.00;101530.00;5053575;28;20043;-59
2021/12/21 06:30:13;;;;;;;17.42;9.88;;;;;;;-5.13;100.00;101506.66;5067228;28;20088;-59
2021/12/21 06:32:38;;;;;;;21.63;10.45;;;;;;;-4.86;100.00;101558.75;5067490;28;20086;-59
2021/12/21 06:35:05;;;;;;;18.20;9.75;;;;;;;-4.95;100.00;101543.09;5066984;28;20154;-60
2021/12/21 06:37:30;;;;;;;16.45;9.65;;;;;;;-4.88;100.00;101550.16;5067791;28;20051;-60
2021/12/21 06:39:56;;;;;;;14.45;8.98;;;;;;;-4.94;100.00;101560.22;5067081;28;20027;-60
2021/12/21 06:42:22;;;;;;;19.75;9.65;;;;;;;-4.98;100.00;101558.38;5065597;28;20193;-60
2021/12/21 06:44:54;;;;;;;23.10;9.15;;;;;;;-4.99;100.00;101566.88;5067392;28;20055;-60
2021/12/21 06:52:48;;;;;;;15.55;10.57;;;;;;;-5.14;100.00;101572.41;5065433;28;20139;-59
2021/12/21 06:55:14;;;;;;;18.38;9.82;;;;;;;-5.14;100.00;101571.53;5067522;28;20436;-59
2021/12/21 06:57:43;;;;;;;20.58;9.65;;;;;;;-5.19;100.00;101567.13;5049265;28;20089;-59
2021/12/21 07:00:11;;;;;;;20.98;9.82;;;;;;;-5.20;100.00;101561.94;5065680;28;20085;-59
2021/12/21 07:02:38;;;;;;;15.88;10.10;;;;;;;-5.39;100.00;101528.91;5066494;28;20089;-60
2021/12/21 07:05:04;;;;;;;17.23;8.80;;;;;;;-5.14;100.00;101571.53;5065393;28;20036;-60
2021/12/21 07:07:29;;;;;;;18.60;9.27;;;;;;;-5.17;100.00;101564.63;5065707;28;20100;-59
2021/12/21 07:10:00;;;;;;;17.92;10.35;;;;;;;-5.18;100.00;101555.19;5045209;28;20949;-59
2021/12/21 07:20:20;;;;;;;14.05;9.15;;;;;;;-5.46;100.00;101538.06;5065019;28;20050;-59
2021/12/21 07:22:45;;;;;;;23.75;10.50;;;;;;;-5.19;100.00;101574.81;5066151;28;20126;-59
2021/12/21 07:25:11;;;;;;;25.67;10.65;;;;;;;-5.17;100.00;101578.28;5065129;28;20024;-59
2021/12/21 07:27:36;;;;;;;20.17;10.50;;;;;;;-5.16;100.00;101574.91;5065795;28;20910;-59
2021/12/21 07:30:03;;;;;;;22.13;10.43;;;;;;;-5.18;100.00;101576.56;5065235;28;20519;-59
2021/12/21 07:32:29;;;;;;;21.98;11.00;;;;;;;-5.19;100.00;101567.13;5064563;28;20950;-58
2021/12/21 07:34:54;;;;;;;18.95;10.93;;;;;;;-5.21;100.00;101571.34;5064411;28;20067;-59
2021/12/21 07:37:20;;;;;;;16.77;10.30;;;;;;;-5.19;100.00;101568.81;5066536;28;20853;-59
2021/12/21 07:39:45;;;;;;;15.82;10.02;;;;;;;-5.36;100.00;101537.53;5061140;28;20124;-59
2021/12/21 07:42:10;;;;;;;17.17;11.35;;;;;;;-5.04;100.00;101566.75;5063103;28;20037;-59
2021/12/21 07:44:36;;;;;;;25.27;12.05;;;;;;;-4.94;100.00;101565.34;5068551;28;20131;-59
2021/12/21 07:47:01;;;;;;;17.60;11.75;;;;;;;-4.85;100.00;101571.63;5069356;28;20950;-59
2021/12/21 07:49:27;;;;;;;17.13;11.73;;;;;;;-4.82;100.00;101561.44;5067538;28;20893;-59
2021/12/21 07:51:52;;;;;;;23.98;12.38;;;;;;;-4.78;100.00;101567.53;5066052;28;20055;-59
2021/12/21 07:54:18;;;;;;;22.42;12.60;;;;;;;-4.74;100.00;101569.38;5070954;28;20449;-59
2021/12/21 07:56:44;;;;;;;20.52;12.25;;;;;;;-4.72;100.00;101571.16;5069819;28;20253;-59
2021/12/21 07:59:11;;;;;;;17.80;12.13;;;;;;;-4.78;100.00;101557.28;5069527;28;20032;-60
2021/12/21 08:01:40;;;;;;;19.45;11.57;;;;;;;-4.80;100.00;101553.81;5069227;28;20131;-59
2021/12/21 08:04:09;;;;;;;21.00;12.13;;;;;;;-4.62;100.00;101585.13;5070737;28;20492;-59
2021/12/21 08:06:35;;;;;;;18.27;11.43;;;;;;;-4.57;100.00;101586.13;5069235;28;20785;-59
2021/12/21 08:09:03;;;;;;;24.13;11.57;;;;;;;-4.51;100.00;101583.75;5069075;28;20024;-59
2021/12/21 08:12:12;;;;;;;20.23;11.73;;;;;;;-4.72;100.00;101552.34;5070650;28;20112;-59
2021/12/21 08:14:14;;;;;;;18.52;11.23;;;;;;;-4.44;100.00;101590.81;5070425;28;20054;-59
2021/12/21 08:16:39;;;;;;;20.90;12.15;;;;;;;-4.40;100.00;101590.06;5070758;28;20130;-59
2021/12/21 08:19:05;;;;;;;18.63;12.57;;;;;;;-4.37;100.00;101591.84;5053066;28;20035;-59
2021/12/21 08:21:31;;;;;;;20.15;13.48;;;;;;;-4.30;100.00;101588.63;5071527;28;20956;-59
2021/12/21 08:23:57;;;;;;;21.42;12.85;;;;;;;-4.26;100.00;101586.19;5069544;28;20028;-59
2021/12/21 08:26:23;;;;;;;18.50;13.00;;;;;;;-4.24;100.00;101579.41;5069073;28;20038;-59
2021/12/21 08:28:48;;;;;;;22.10;12.60;;;;;;;-4.19;100.00;101592.38;5068918;28;20031;-59
2021/12/21 08:31:14;;;;;;;25.40;13.55;;;;;;;-4.16;100.00;101583.06;5070023;28;20062;-59
2021/12/21 08:33:41;;;;;;;18.42;12.27;;;;;;;-4.11;100.00;101583.19;5071523;28;20023;-59
2021/12/21 08:36:08;;;;;;;18.63;12.35;;;;;;;-4.07;100.00;101586.72;5053136;28;20065;-59
2021/12/21 08:38:37;;;;;;;18.13;12.38;;;;;;;-4.04;100.00;101586.78;5070089;28;20026;-59
2021/12/21 08:41:03;;;;;;;18.33;11.57;;;;;;;-4.00;100.00;101588.63;5050783;28;20033;-59
2021/12/21 08:43:29;;;;;;;18.85;11.38;;;;;;;-3.99;100.00;101585.25;5068939;28;20851;-59
2021/12/21 08:45:56;;;;;;;23.60;12.75;;;;;;;-3.96;100.00;101580.19;5068764;28;20108;-59
2021/12/21 08:48:22;;;;;;;20.55;13.02;;;;;;;-3.92;100.00;101587.16;5068570;28;20225;-59
2021/12/21 08:50:49;;;;;;;23.70;13.82;;;;;;;-3.88;100.00;101583.81;5067187;28;20132;-59
2021/12/21 08:53:15;;;;;;;14.73;11.43;;;;;;;-3.87;100.00;101585.56;5068831;28;20130;-59
2021/12/21 08:55:42;;;;;;;20.77;12.32;;;;;;;-3.83;100.00;101582.25;5067266;28;20032;-59
2021/12/21 08:58:08;;;;;;;23.50;13.05;;;;;;;-3.79;100.00;101581.53;5050613;28;20121;-60
2021/12/21 09:00:33;;;;;;;22.75;13.00;;;;;;;-3.75;100.00;101583.34;5068664;28;20039;-59
2021/12/21 09:02:59;;;;;;;21.17;12.45;;;;;;;-3.72;100.00;101580.84;5068225;28;20027;-59
2021/12/21 09:05:27;;;;;;;22.90;14.13;;;;;;;-3.66;100.00;101592.16;5067866;28;20908;-59
2021/12/21 09:07:54;;;;;;;22.00;12.88;;;;;;;-3.60;100.00;101583.72;5066222;28;20031;-59
2021/12/21 09:10:21;;;;;;;21.58;13.55;;;;;;;-3.52;100.00;101587.38;5068331;28;20027;-59
2021/12/21 09:12:46;;;;;;;19.23;13.07;;;;;;;-3.44;100.00;101593.56;5068045;28;20027;-59
2021/12/21 09:15:13;;;;;;;19.13;13.38;;;;;;;-3.42;100.00;101586.78;5067244;28;20034;-59
2021/12/21 09:17:44;;;;;;;22.27;13.70;;;;;;;-3.38;100.00;101583.44;5068168;28;20089;-60
2021/12/21 09:20:13;;;;;;;22.50;13.88;;;;;;;-3.35;100.00;101577.53;5067262;28;20065;-59
2021/12/21 09:22:38;;;;;;;26.52;15.05;;;;;;;-3.31;100.00;101585.31;5067990;28;20043;-59
2021/12/21 09:25:04;;;;;;;21.92;14.48;;;;;;;-3.45;100.00;101549.88;5067431;28;20086;-60
2021/12/21 09:27:30;;;;;;;21.15;14.43;;;;;;;-3.19;100.00;101590.78;5066397;28;20788;-59
2021/12/21 09:29:55;;;;;;;24.90;14.90;;;;;;;-3.13;100.00;101585.78;5067690;28;20055;-59
2021/12/21 09:32:21;;;;;;;20.05;14.35;;;;;;;-3.10;100.00;101585.88;5067654;28;20532;-59
2021/12/21 09:34:46;;;;;;;22.40;14.80;;;;;;;-3.00;100.00;101581.81;5067634;28;20081;-59
2021/12/21 09:37:19;;;;;;;26.05;14.27;;;;;;;-2.95;100.00;101584.50;5067685;28;20126;-59
2021/12/21 09:39:49;;;;;;;26.10;14.93;;;;;;;-2.91;100.00;101581.16;5066813;28;20089;-59
2021/12/21 09:42:18;;;;;;;24.55;13.13;;;;;;;-2.87;100.00;101578.69;5068516;28;20793;-59
2021/12/21 09:44:44;;;;;;;21.73;13.20;;;;;;;-2.83;100.00;101584.75;5066578;28;20031;-59
2021/12/21 09:47:10;;;;;;;24.58;13.45;;;;;;;-2.75;100.00;101588.41;5066949;28;20066;-59
2021/12/21 09:49:37;;;;;;;16.95;12.38;;;;;;;-2.71;100.00;101591.06;5064821;28;20165;-59
2021/12/21 09:52:05;;;;;;;18.08;12.93;;;;;;;-2.66;100.00;101591.16;5066508;28;20861;-59
2021/12/21 09:54:33;;;;;;;19.90;11.93;;;;;;;-2.62;100.00;101590.41;5067234;28;20031;-59
2021/12/21 09:56:58;;;;;;;18.13;13.07;;;;;;;-2.56;100.00;101595.69;5066430;28;20027;-59
2021/12/21 09:59:25;;;;;;;20.40;12.23;;;;;;;-2.49;100.00;101591.53;5067401;28;20027;-59
2021/12/21 10:01:51;;;;;;;17.70;12.45;;;;;;;-2.41;100.00;101584.84;5067163;28;20088;-59
2021/12/21 10:04:17;;;;;;;22.08;12.70;;;;;;;-2.36;100.00;101591.81;5066503;28;20020;-59
2021/12/21 10:06:48;;;;;;;22.55;13.27;;;;;;;-2.30;100.00;101591.94;5066013;28;20135;-59
2021/12/21 10:09:15;;;;;;;21.25;12.38;;;;;;;-2.23;100.00;101586.09;5065598;28;20031;-59
2021/12/21 10:11:47;;;;;;;19.98;13.15;;;;;;;-2.14;100.00;101596.59;5067128;28;20025;-59
2021/12/21 10:14:14;;;;;;;18.52;12.27;;;;;;;-2.07;100.00;101592.44;5064751;28;20032;-59
2021/12/21 10:16:39;;;;;;;21.17;12.63;;;;;;;-2.03;100.00;101588.22;5063234;28;20039;-59
2021/12/21 10:19:05;;;;;;;25.95;12.07;;;;;;;-1.97;100.00;101583.19;5059641;28;20059;-59
2021/12/21 10:21:31;;;;;;;16.20;12.43;;;;;;;-1.90;100.00;101587.63;5063265;28;20450;-59
2021/12/21 10:23:57;;;;;;;16.83;12.05;;;;;;;-1.87;100.00;101590.25;5054725;28;20032;-59
2021/12/21 10:26:29;;;;;;;26.73;12.10;;;;;;;-1.81;100.00;101591.25;5054619;28;20316;-59
2021/12/21 10:29:05;;;;;;;19.55;12.57;;;;;;;-1.75;100.00;101587.91;5061565;28;20090;-59
2021/12/21 10:31:36;;;;;;;18.83;11.88;;;;;;;-1.69;100.00;101585.47;5054243;28;20033;-59
2021/12/21 10:34:03;;;;;;;24.27;11.90;;;;;;;-1.63;100.00;101589.03;5049635;28;20036;-60
2021/12/21 10:36:29;;;;;;;16.42;11.52;;;;;;;-1.69;100.00;101565.69;5046934;28;20036;-59
2021/12/21 10:39:02;;;;;;;21.60;12.35;;;;;;;-1.56;100.00;101582.25;5056897;28;20046;-59
2021/12/21 10:41:33;;;;;;;18.23;10.93;;;;;;;-1.53;100.00;101579.75;5049279;28;20072;-57
2021/12/21 10:44:04;;;;;;;17.20;11.38;;;;;;;-1.77;100.00;101530.34;5045963;28;20325;-59
2021/12/21 10:46:32;;;;;;;14.98;11.13;;;;;;;-1.46;100.00;101579.00;5046117;28;20089;-58
2021/12/21 10:49:05;;;;;;;16.42;10.45;;;;;;;-1.43;100.00;101573.91;5054621;28;20083;-58
2021/12/21 10:51:30;;;;;;;22.75;12.15;;;;;;;-1.38;100.00;101577.41;5066416;28;20479;-58
2021/12/21 10:53:56;;;;;;;19.63;11.32;;;;;;;-1.34;100.00;101579.22;5067020;28;20084;-58
2021/12/21 10:56:21;;;;;;;18.50;11.07;;;;;;;-1.27;100.00;101572.44;5057032;28;20072;-57
2021/12/21 10:58:47;;;;;;;15.75;10.75;;;;;;;-1.23;100.00;101564.78;5054682;28;20101;-58
2021/12/21 11:01:19;;;;;;;16.30;11.25;;;;;;;-1.21;100.00;101560.53;5059711;28;20857;-57
2021/12/21 11:03:53;;;;;;;14.88;11.27;;;;;;;-1.15;100.00;101560.63;5063730;28;20865;-58
2021/12/21 11:06:26;;;;;;;20.27;11.95;;;;;;;-1.11;100.00;101561.53;5067148;28;20038;-58
2021/12/21 11:08:54;;;;;;;16.80;10.90;;;;;;;-1.10;100.00;101556.41;5052360;28;20036;-58
2021/12/21 11:11:22;;;;;;;16.30;11.60;;;;;;;-1.04;100.00;101553.06;5045783;28;20028;-59
2021/12/21 11:14:08;;;;;;;16.65;10.73;;;;;;;-1.00;100.00;101547.09;5048129;28;20032;-59
2021/12/21 11:16:45;;;;;;;19.80;9.95;;;;;;;-0.95;100.00;101542.03;5047524;28;20024;-58
2021/12/21 11:19:13;;;;;;;16.83;10.57;;;;;;;-0.93;100.00;101540.31;5050549;28;20403;-58
2021/12/21 11:21:39;;;;;;;14.43;9.75;;;;;;;-0.88;100.00;101534.38;5060335;28;20027;-59
2021/12/21 11:24:11;;;;;;;17.17;10.48;;;;;;;-0.86;100.00;101521.50;5068792;28;20111;-59
2021/12/21 11:26:38;;;;;;;18.02;9.80;;;;;;;-0.84;100.00;101524.97;5071324;28;20036;-59
2021/12/21 11:29:13;;;;;;;15.95;10.25;;;;;;;-0.81;100.00;101523.28;5052493;28;20027;-59
2021/12/21 11:31:41;;;;;;;15.68;9.35;;;;;;;-0.79;100.00;101520.75;5071681;28;20085;-59
2021/12/21 11:34:09;;;;;;;13.45;9.13;;;;;;;-0.77;100.00;101516.47;5070881;28;20036;-59
2021/12/21 11:39:20;;;;;;;12.98;9.05;;;;;;;-0.72;100.00;101504.50;5070427;28;20097;-59
2021/12/21 11:41:46;;;;;;;11.45;7.32;;;;;;;-0.72;100.00;101509.69;5070496;28;20865;-59
2021/12/21 11:44:30;;;;;;;15.35;8.80;;;;;;;-0.67;100.00;101503.72;5071674;28;20024;-58
2021/12/21 11:47:01;;;;;;;10.13;7.28;;;;;;;-0.55;100.00;101500.44;5053449;28;20214;-59
2021/12/21 11:49:41;;;;;;;18.92;7.65;;;;;;;-0.40;100.00;101503.19;5072450;28;20504;-59
2021/12/21 11:52:13;;;;;;;17.67;6.53;;;;;;;-0.24;100.00;101499.97;5072887;28;20139;-59
2021/12/21 11:54:53;;;;;;;11.25;5.93;;;;;;;-0.10;100.00;101493.22;5070711;28;20074;-58
2021/12/21 11:57:31;;;;;;;12.32;5.70;;;;;;;0.02;100.00;101487.31;5062681;28;20028;-59
2021/12/21 12:00:09;;;;;;;12.00;5.20;;;;;;;0.20;100.00;101487.50;5064856;28;20040;-59
2021/12/21 12:02:35;;;;;;;15.02;6.80;;;;;;;0.24;100.00;101480.63;5069353;28;20050;-59
2021/12/21 12:05:00;;;;;;;15.85;5.88;;;;;;;-0.17;100.00;101397.59;5068676;28;20032;-59
2021/12/21 12:07:26;;;;;;;10.93;6.28;;;;;;;0.47;100.00;101473.97;5069910;28;21031;-59
2021/12/21 12:10:07;;;;;;;9.35;5.80;;;;;;;0.57;100.00;101473.19;5067747;28;20027;-59